createdAt,value
2018-02-13T00:01:48.508Z,7.63
2018-02-13T00:04:16.309Z,7.63
2018-02-13T00:06:43.886Z,7.59
2018-02-13T00:09:11.476Z,7.59
2018-02-13T00:11:39.822Z,7.59
2018-02-13T00:14:07.385Z,7.57
2018-02-13T00:16:35.142Z,7.56
2018-02-13T00:19:03.026Z,7.56
2018-02-13T00:21:30.825Z,7.55
2018-02-13T00:23:58.665Z,7.55
2018-02-13T00:26:26.435Z,7.52
2018-02-13T00:28:54.310Z,7.55
2018-02-13T00:31:22.122Z,7.53
2018-02-13T00:33:49.678Z,7.52
2018-02-13T00:36:17.477Z,7.46
2018-02-13T00:38:45.046Z,7.50
2018-02-13T00:41:12.865Z,7.50
2018-02-13T00:43:40.726Z,7.50
2018-02-13T00:46:08.277Z,7.44
2018-02-13T00:48:35.847Z,7.44
2018-02-13T00:51:03.468Z,7.45
2018-02-13T00:53:31.525Z,7.44
2018-02-13T00:55:59.332Z,7.12
2018-02-13T00:58:28.201Z,7.44
2018-02-13T01:00:56.947Z,7.38
2018-02-13T01:03:24.574Z,7.46
2018-02-13T01:05:52.230Z,7.44
2018-02-13T01:08:19.956Z,7.45
2018-02-13T01:10:48.113Z,7.47
2018-02-13T01:13:15.782Z,7.44
2018-02-13T01:15:43.492Z,7.45
2018-02-13T01:18:11.103Z,7.45
2018-02-13T01:20:39.564Z,7.46
2018-02-13T01:23:08.184Z,7.45
2018-02-13T01:25:36.241Z,7.41
2018-02-13T01:28:03.889Z,7.41
2018-02-13T01:30:31.487Z,7.39
2018-02-13T01:32:59.634Z,7.36
2018-02-13T01:35:27.293Z,7.37
2018-02-13T01:37:55.043Z,7.01
2018-02-13T01:40:23.362Z,7.34
2018-02-13T01:42:51.216Z,7.35
2018-02-13T01:45:19.308Z,7.35
2018-02-13T01:47:47.134Z,7.34
2018-02-13T01:50:25.558Z,7.31
2018-02-13T01:52:54.458Z,7.29
2018-02-13T01:55:22.126Z,7.27
2018-02-13T01:57:50.540Z,7.26
2018-02-13T02:00:18.154Z,7.26
2018-02-13T02:02:45.810Z,7.24
2018-02-13T02:05:13.410Z,7.22
2018-02-13T02:07:41.443Z,7.18
2018-02-13T02:10:10.764Z,7.14
2018-02-13T02:12:38.404Z,7.14
2018-02-13T02:15:06.780Z,7.13
2018-02-13T02:17:34.455Z,7.13
2018-02-13T02:20:02.120Z,7.09
2018-02-13T02:22:29.748Z,7.10
2018-02-13T02:24:57.455Z,7.08
2018-02-13T02:27:25.837Z,7.08
2018-02-13T02:29:53.764Z,7.06
2018-02-13T02:32:21.429Z,7.06
2018-02-13T02:34:49.255Z,7.03
2018-02-13T02:37:16.863Z,7.02
2018-02-13T02:39:44.463Z,7.03
2018-02-13T02:42:12.086Z,7.00
2018-02-13T02:44:40.145Z,6.97
2018-02-13T02:47:07.763Z,6.97
2018-02-13T02:49:35.404Z,6.88
2018-02-13T02:52:03.019Z,6.93
2018-02-13T02:54:30.597Z,6.93
2018-02-13T02:56:58.229Z,6.93
2018-02-13T02:59:25.863Z,6.90
2018-02-13T03:01:53.511Z,6.89
2018-02-13T03:04:22.177Z,6.89
2018-02-13T03:06:49.792Z,6.89
2018-02-13T03:09:17.355Z,6.88
2018-02-13T03:11:45.050Z,6.91
2018-02-13T03:14:13.393Z,6.89
2018-02-13T03:16:41.755Z,6.89
2018-02-13T03:19:09.389Z,6.92
2018-02-13T03:21:37.381Z,6.91
2018-02-13T03:24:05.100Z,6.91
2018-02-13T03:26:32.905Z,6.88
2018-02-13T03:29:00.539Z,6.95
2018-02-13T03:31:28.151Z,6.97
2018-02-13T03:33:57.115Z,6.98
2018-02-13T03:36:25.650Z,6.99
2018-02-13T03:38:53.704Z,6.98
2018-02-13T03:41:21.588Z,6.98
2018-02-13T03:43:49.228Z,6.99
2018-02-13T03:46:17.619Z,6.98
2018-02-13T03:48:45.218Z,6.96
2018-02-13T03:51:12.897Z,6.96
2018-02-13T03:53:40.574Z,6.96
2018-02-13T03:56:08.247Z,6.94
2018-02-13T03:58:35.853Z,6.88
2018-02-13T04:01:03.445Z,6.96
2018-02-13T04:03:31.060Z,6.96
2018-02-13T04:05:59.786Z,6.97
2018-02-13T04:08:27.900Z,6.99
2018-02-13T04:10:55.507Z,6.98
2018-02-13T04:13:23.117Z,6.99
2018-02-13T04:15:51.578Z,7.02
2018-02-13T04:18:19.153Z,7.02
2018-02-13T04:20:46.782Z,7.02
2018-02-13T04:23:15.056Z,7.04
2018-02-13T04:25:42.907Z,7.00
2018-02-13T04:28:10.949Z,7.05
2018-02-13T04:30:39.065Z,7.07
2018-02-13T04:33:07.136Z,7.08
2018-02-13T04:35:35.540Z,7.11
2018-02-13T04:38:04.488Z,7.13
2018-02-13T04:40:33.287Z,7.15
2018-02-13T04:43:02.171Z,7.14
2018-02-13T04:45:30.019Z,7.18
2018-02-13T04:47:59.029Z,7.15
2018-02-13T04:50:26.956Z,7.15
2018-02-13T04:52:55.011Z,7.13
2018-02-13T04:55:22.694Z,7.11
2018-02-13T04:57:50.565Z,7.09
2018-02-13T05:00:19.257Z,7.10
2018-02-13T05:02:47.726Z,7.09
2018-02-13T05:05:15.534Z,7.08
2018-02-13T05:07:43.343Z,7.03
2018-02-13T05:10:11.078Z,7.02
2018-02-13T05:12:39.638Z,7.03
2018-02-13T05:15:07.461Z,7.02
2018-02-13T05:17:35.336Z,7.05
2018-02-13T05:20:03.052Z,7.34
2018-02-13T05:22:30.771Z,7.27
2018-02-13T05:24:58.413Z,7.29
2018-02-13T05:27:26.369Z,7.29
2018-02-13T05:29:53.978Z,7.96
2018-02-13T05:32:22.609Z,10.32
2018-02-13T05:34:50.225Z,11.37
2018-02-13T05:37:17.834Z,11.93
2018-02-13T05:39:45.647Z,12.44
2018-02-13T05:42:13.184Z,11.94
2018-02-13T05:44:41.028Z,11.49
2018-02-13T05:47:08.965Z,11.30
2018-02-13T05:49:36.526Z,11.03
2018-02-13T05:52:04.320Z,10.70
2018-02-13T05:54:32.066Z,10.30
2018-02-13T05:56:59.652Z,9.90
2018-02-13T05:59:27.213Z,9.57
2018-02-13T06:01:54.835Z,9.30
2018-02-13T06:04:22.364Z,9.06
2018-02-13T06:06:49.935Z,8.84
2018-02-13T06:09:17.454Z,8.67
2018-02-13T06:11:45.023Z,8.64
2018-02-13T06:14:12.627Z,8.55
2018-02-13T06:16:40.198Z,8.48
2018-02-13T06:19:07.753Z,8.41
2018-02-13T06:21:35.281Z,8.29
2018-02-13T06:24:02.827Z,8.16
2018-02-13T06:26:30.483Z,8.07
2018-02-13T06:28:57.991Z,7.60
2018-02-13T06:31:25.536Z,7.72
2018-02-13T06:33:53.094Z,7.39
2018-02-13T06:36:20.646Z,7.55
2018-02-13T06:38:48.431Z,7.54
2018-02-13T06:41:16.988Z,7.59
2018-02-13T06:43:44.517Z,7.78
2018-02-13T06:46:12.038Z,7.73
2018-02-13T06:48:39.566Z,7.90
2018-02-13T06:51:07.108Z,8.10
2018-02-13T06:53:34.669Z,8.18
2018-02-13T06:56:02.230Z,8.15
2018-02-13T06:58:30.037Z,8.30
2018-02-13T07:00:57.591Z,8.24
2018-02-13T07:03:25.127Z,8.36
2018-02-13T07:05:53.558Z,8.38
2018-02-13T07:08:21.435Z,8.48
2018-02-13T07:10:48.970Z,8.51
2018-02-13T07:13:16.612Z,8.50
2018-02-13T07:15:44.173Z,8.59
2018-02-13T07:18:11.948Z,9.00
2018-02-13T07:20:39.506Z,9.14
2018-02-13T07:23:07.095Z,9.22
2018-02-13T07:25:34.733Z,9.31
2018-02-13T07:28:02.328Z,9.40
2018-02-13T07:30:30.248Z,9.62
2018-02-13T07:32:57.769Z,9.82
2018-02-13T07:35:25.308Z,9.75
2018-02-13T07:37:52.855Z,10.14
2018-02-13T07:40:20.730Z,10.41
2018-02-13T07:42:48.299Z,10.26
2018-02-13T07:45:15.891Z,10.61
2018-02-13T07:47:43.451Z,10.51
2018-02-13T07:50:11.285Z,10.41
2018-02-13T07:52:38.878Z,10.32
2018-02-13T07:55:06.665Z,10.23
2018-02-13T07:57:34.443Z,10.05
2018-02-13T08:00:02.237Z,9.89
2018-02-13T08:02:29.760Z,9.73
2018-02-13T08:04:57.299Z,9.62
2018-02-13T08:07:24.851Z,9.67
2018-02-13T08:09:52.399Z,9.66
2018-02-13T08:12:19.939Z,9.61
2018-02-13T08:14:47.468Z,9.54
2018-02-13T08:17:14.996Z,9.54
2018-02-13T08:19:42.554Z,9.62
2018-02-13T08:22:10.080Z,9.71
2018-02-13T08:24:38.453Z,9.80
2018-02-13T08:27:05.977Z,9.76
2018-02-13T08:29:33.726Z,9.73
2018-02-13T08:32:01.340Z,9.67
2018-02-13T08:34:28.877Z,9.63
2018-02-13T08:36:56.769Z,9.67
2018-02-13T08:39:24.295Z,9.74
2018-02-13T08:41:51.810Z,9.79
2018-02-13T08:44:19.356Z,9.93
2018-02-13T08:46:46.884Z,10.07
2018-02-13T08:49:14.431Z,10.18
2018-02-13T08:51:41.949Z,10.35
2018-02-13T08:54:09.756Z,10.45
2018-02-13T08:56:37.289Z,11.06
2018-02-13T08:59:05.354Z,11.58
2018-02-13T09:01:33.203Z,11.84
2018-02-13T09:04:00.744Z,12.26
2018-02-13T09:06:28.701Z,12.83
2018-02-13T09:08:56.887Z,13.16
2018-02-13T09:11:24.428Z,13.13
2018-02-13T09:13:51.990Z,12.76
2018-02-13T09:16:19.516Z,12.28
2018-02-13T09:18:47.040Z,11.83
2018-02-13T09:21:14.558Z,11.51
2018-02-13T09:23:43.040Z,11.36
2018-02-13T09:26:10.605Z,10.93
2018-02-13T09:28:38.164Z,10.99
2018-02-13T09:31:06.043Z,11.21
2018-02-13T09:33:33.812Z,11.23
2018-02-13T09:36:01.343Z,11.45
2018-02-13T09:38:28.885Z,11.55
2018-02-13T09:40:56.432Z,11.49
2018-02-13T09:43:24.030Z,11.36
2018-02-13T09:45:51.638Z,11.09
2018-02-13T09:48:19.201Z,10.86
2018-02-13T09:50:46.717Z,10.77
2018-02-13T09:53:14.228Z,10.79
2018-02-13T09:55:41.782Z,10.96
2018-02-13T09:58:09.340Z,11.08
2018-02-13T10:00:36.906Z,10.76
2018-02-13T10:03:04.458Z,9.66
2018-02-13T10:05:31.990Z,9.67
2018-02-13T10:07:59.507Z,9.72
2018-02-13T10:10:27.264Z,9.60
2018-02-13T10:12:54.821Z,9.80
2018-02-13T10:15:22.339Z,9.38
2018-02-13T10:17:50.148Z,9.42
2018-02-13T10:20:17.678Z,9.49
2018-02-13T10:22:45.218Z,9.57
2018-02-13T10:25:12.769Z,9.51
2018-02-13T10:27:40.514Z,9.81
2018-02-13T10:30:08.177Z,9.97
2018-02-13T10:32:35.735Z,9.99
2018-02-13T10:35:03.245Z,9.97
2018-02-13T10:37:30.997Z,10.08
2018-02-13T10:39:58.729Z,10.10
2018-02-13T10:42:26.274Z,10.25
2018-02-13T10:44:53.810Z,10.15
2018-02-13T10:47:21.344Z,9.92
2018-02-13T10:49:49.726Z,9.60
2018-02-13T10:52:17.284Z,9.92
2018-02-13T10:54:44.825Z,9.99
2018-02-13T10:57:12.335Z,9.93
2018-02-13T10:59:40.101Z,9.96
2018-02-13T11:02:13.084Z,9.97
2018-02-13T11:04:40.825Z,9.87
2018-02-13T11:07:08.490Z,9.34
2018-02-13T11:09:36.010Z,9.61
2018-02-13T11:12:03.871Z,9.68
2018-02-13T11:14:32.359Z,9.61
2018-02-13T11:16:59.894Z,9.34
2018-02-13T11:19:27.467Z,9.46
2018-02-13T11:21:55.356Z,9.30
2018-02-13T11:24:22.902Z,9.16
2018-02-13T11:26:50.436Z,9.24
2018-02-13T11:29:17.953Z,9.54
2018-02-13T11:31:45.504Z,9.99
2018-02-13T11:34:13.064Z,10.17
2018-02-13T11:36:40.910Z,10.03
2018-02-13T11:39:08.496Z,10.78
2018-02-13T11:41:36.025Z,10.77
2018-02-13T11:44:03.570Z,10.70
2018-02-13T11:46:31.107Z,10.68
2018-02-13T11:48:58.631Z,11.18
2018-02-13T11:51:26.195Z,11.54
2018-02-13T11:53:54.548Z,12.26
2018-02-13T11:56:22.078Z,12.44
2018-02-13T11:58:49.611Z,11.06
2018-02-13T12:01:17.177Z,12.15
2018-02-13T12:03:44.981Z,12.24
2018-02-13T12:06:12.494Z,12.26
2018-02-13T12:08:40.046Z,12.72
2018-02-13T12:11:07.609Z,12.34
2018-02-13T12:13:35.166Z,12.03
2018-02-13T12:16:03.599Z,12.62
2018-02-13T12:18:31.172Z,12.82
2018-02-13T12:20:58.734Z,13.33
2018-02-13T12:23:26.289Z,13.00
2018-02-13T12:25:53.855Z,13.13
2018-02-13T12:28:21.382Z,12.70
2018-02-13T12:30:48.955Z,11.89
2018-02-13T12:33:16.734Z,12.21
2018-02-13T12:35:44.274Z,11.73
2018-02-13T12:38:11.809Z,11.63
2018-02-13T12:40:39.621Z,9.95
2018-02-13T12:43:07.172Z,10.30
2018-02-13T12:45:34.733Z,10.13
2018-02-13T12:48:03.078Z,10.00
2018-02-13T12:50:31.120Z,10.03
2018-02-13T12:52:59.344Z,9.69
2018-02-13T12:55:27.558Z,9.49
2018-02-13T12:57:55.292Z,9.77
2018-02-13T13:00:23.618Z,9.51
2018-02-13T13:02:51.184Z,9.88
2018-02-13T13:05:18.757Z,9.28
2018-02-13T13:07:46.313Z,9.18
2018-02-13T13:10:13.887Z,9.26
2018-02-13T13:12:41.440Z,9.34
2018-02-13T13:15:09.278Z,9.16
2018-02-13T13:17:36.863Z,8.72
2018-02-13T13:20:04.624Z,9.00
2018-02-13T13:22:32.155Z,9.22
2018-02-13T13:24:59.694Z,8.99
2018-02-13T13:27:27.423Z,8.81
2018-02-13T13:29:55.233Z,8.34
2018-02-13T13:32:22.841Z,8.30
2018-02-13T13:38:11.727Z,8.50
2018-02-13T13:40:39.569Z,8.00
2018-02-13T13:43:07.089Z,8.12
2018-02-13T13:45:34.617Z,7.75
2018-02-13T13:48:02.172Z,7.59
2018-02-13T13:50:29.774Z,7.25
2018-02-13T13:52:57.402Z,7.71
2018-02-13T13:55:25.029Z,7.14
2018-02-13T13:57:52.626Z,7.21
2018-02-13T14:00:20.255Z,7.37
2018-02-13T14:02:47.823Z,7.39
2018-02-13T14:05:15.513Z,7.27
2018-02-13T14:07:43.044Z,7.47
2018-02-13T14:10:10.579Z,7.29
2018-02-13T14:12:38.111Z,7.37
2018-02-13T14:15:05.903Z,7.51
2018-02-13T14:17:33.997Z,7.80
2018-02-13T14:20:01.560Z,7.54
2018-02-13T14:22:29.140Z,7.38
2018-02-13T14:24:56.748Z,7.18
2018-02-13T14:27:24.280Z,7.31
2018-02-13T14:29:51.885Z,7.13
2018-02-13T14:32:19.423Z,7.30
2018-02-13T14:34:46.960Z,7.13
2018-02-13T14:37:14.670Z,7.19
2018-02-13T14:39:42.207Z,7.07
2018-02-13T14:42:09.770Z,7.26
2018-02-13T14:44:37.384Z,7.11
2018-02-13T14:47:05.631Z,6.68
2018-02-13T14:49:33.470Z,6.99
2018-02-13T14:52:01.063Z,6.89
2018-02-13T14:54:28.613Z,7.01
2018-02-13T14:56:56.796Z,6.80
2018-02-13T14:59:24.528Z,6.49
2018-02-13T15:01:52.123Z,6.61
2018-02-13T15:04:20.174Z,6.70
2018-02-13T15:06:48.168Z,6.46
2018-02-13T15:09:15.709Z,6.71
2018-02-13T15:11:43.472Z,7.07
2018-02-13T15:14:11.575Z,7.10
2018-02-13T15:16:40.013Z,7.11
2018-02-13T15:19:07.659Z,7.00
2018-02-13T15:21:35.214Z,7.09
2018-02-13T15:24:03.149Z,7.07
2018-02-13T15:26:30.789Z,7.09
2018-02-13T15:28:58.592Z,7.11
2018-02-13T15:31:26.218Z,7.08
2018-02-13T15:33:53.803Z,7.10
2018-02-13T15:36:21.604Z,7.10
2018-02-13T15:38:49.419Z,7.05
2018-02-13T15:41:17.066Z,7.11
2018-02-13T15:43:44.845Z,7.14
2018-02-13T15:46:12.448Z,7.13
2018-02-13T15:48:40.220Z,7.16
2018-02-13T15:51:07.820Z,7.14
2018-02-13T15:53:35.508Z,7.14
2018-02-13T15:56:03.366Z,7.19
2018-02-13T15:58:30.927Z,7.18
2018-02-13T16:00:58.576Z,7.18
2018-02-13T16:03:26.269Z,7.19
2018-02-13T16:05:53.977Z,7.18
2018-02-13T16:08:21.774Z,7.18
2018-02-13T16:10:49.326Z,7.18
2018-02-13T16:13:16.904Z,7.19
2018-02-13T16:15:44.486Z,7.13
2018-02-13T16:18:12.901Z,7.16
2018-02-13T16:20:40.537Z,7.16
2018-02-13T16:23:08.406Z,7.13
2018-02-13T16:25:36.375Z,7.18
2018-02-13T16:28:04.500Z,7.19
2018-02-13T16:30:32.111Z,7.18
2018-02-13T16:32:59.906Z,7.04
2018-02-13T16:35:27.748Z,7.21
2018-02-13T16:37:55.548Z,7.24
2018-02-13T16:40:23.183Z,7.22
2018-02-13T16:42:50.774Z,7.24
2018-02-13T16:45:18.642Z,7.27
2018-02-13T16:47:46.408Z,7.25
2018-02-13T16:50:15.039Z,7.27
2018-02-13T16:52:42.629Z,7.30
2018-02-13T16:55:10.432Z,7.29
2018-02-13T16:57:39.017Z,7.31
2018-02-13T17:00:06.652Z,7.33
2018-02-13T17:02:34.594Z,7.54
2018-02-13T17:05:02.217Z,7.63
2018-02-13T17:07:29.880Z,7.67
2018-02-13T17:09:57.581Z,7.66
2018-02-13T17:12:25.205Z,7.59
2018-02-13T17:14:52.982Z,7.65
2018-02-13T17:17:20.808Z,7.66
2018-02-13T17:19:48.558Z,7.62
2018-02-13T17:22:16.206Z,7.66
2018-02-13T17:24:44.017Z,7.65
2018-02-13T17:27:11.631Z,7.67
2018-02-13T17:29:39.240Z,7.67
2018-02-13T17:32:07.033Z,7.67
2018-02-13T17:34:34.668Z,7.65
2018-02-13T17:37:02.494Z,7.63
2018-02-13T17:39:30.131Z,7.65
2018-02-13T17:41:57.701Z,7.65
2018-02-13T17:44:25.289Z,7.64
2018-02-13T17:46:52.900Z,7.67
2018-02-13T17:49:20.685Z,7.70
2018-02-13T17:51:48.446Z,7.69
2018-02-13T17:54:16.035Z,7.70
2018-02-13T17:56:43.683Z,7.75
2018-02-13T17:59:11.313Z,7.68
2018-02-13T18:01:38.899Z,7.73
2018-02-13T18:04:06.473Z,7.80
2018-02-13T18:06:34.076Z,7.71
2018-02-13T18:09:01.715Z,7.77
2018-02-13T18:11:29.327Z,7.77
2018-02-13T18:13:57.135Z,7.77
2018-02-13T18:16:24.891Z,7.78
2018-02-13T18:18:52.480Z,7.72
2018-02-13T18:21:20.233Z,7.80
2018-02-13T18:23:47.844Z,7.80
2018-02-13T18:26:15.652Z,7.82
2018-02-13T18:28:43.440Z,7.84
2018-02-13T18:31:11.049Z,7.82
2018-02-13T18:33:38.640Z,7.86
2018-02-13T18:36:06.228Z,7.87
2018-02-13T18:38:33.818Z,7.86
2018-02-13T18:41:02.087Z,7.85
2018-02-13T18:43:30.369Z,7.87
2018-02-13T18:45:59.016Z,7.87
2018-02-13T18:48:26.610Z,7.91
2018-02-13T18:50:54.191Z,7.88
2018-02-13T18:53:22.118Z,7.91
2018-02-13T18:55:50.349Z,7.88
2018-02-13T18:58:18.074Z,7.84
2018-02-13T19:00:46.079Z,7.85
2018-02-13T19:03:13.724Z,7.95
2018-02-13T19:05:41.496Z,7.96
2018-02-13T19:08:10.843Z,9.12
2018-02-13T19:10:38.458Z,8.93
2018-02-13T19:13:06.223Z,8.89
2018-02-13T19:15:33.869Z,8.87
2018-02-13T19:18:01.496Z,8.82
2018-02-13T19:20:29.185Z,8.73
2018-02-13T19:22:56.978Z,8.68
2018-02-13T19:25:24.571Z,8.53
2018-02-13T19:27:52.181Z,8.63
2018-02-13T19:30:19.991Z,8.60
2018-02-13T19:32:49.362Z,8.56
2018-02-13T19:35:17.401Z,8.59
2018-02-13T19:37:46.910Z,8.54
2018-02-13T19:40:17.046Z,8.54
2018-02-13T19:42:47.374Z,8.48
2018-02-13T19:45:16.664Z,8.50
2018-02-13T19:47:45.976Z,8.48
2018-02-13T19:50:15.620Z,8.49
2018-02-13T19:52:44.677Z,8.50
2018-02-13T19:55:14.130Z,8.52
2018-02-13T19:57:43.381Z,8.49
2018-02-13T20:00:12.305Z,8.51
2018-02-13T20:02:40.871Z,8.53
2018-02-13T20:05:09.271Z,8.49
2018-02-13T20:07:37.658Z,8.49
2018-02-13T20:10:06.315Z,8.51
2018-02-13T20:12:35.578Z,8.50
2018-02-13T20:15:05.175Z,8.47
2018-02-13T20:17:33.774Z,8.51
2018-02-13T20:20:01.957Z,8.50
2018-02-13T20:22:30.482Z,8.50
2018-02-13T20:24:58.822Z,8.51
2018-02-13T20:27:27.211Z,8.54
2018-02-13T20:29:55.714Z,8.55
2018-02-13T20:32:23.689Z,8.60
2018-02-13T20:34:51.499Z,8.61
2018-02-13T20:37:19.383Z,8.62
2018-02-13T20:39:49.159Z,8.65
2018-02-13T20:42:17.155Z,8.53
2018-02-13T20:44:46.043Z,8.64
2018-02-13T20:47:13.995Z,8.61
2018-02-13T20:49:41.799Z,8.67
2018-02-13T20:52:09.549Z,8.67
2018-02-13T20:54:38.886Z,8.67
2018-02-13T20:57:06.915Z,8.67
2018-02-13T20:59:34.748Z,8.71
2018-02-13T21:02:02.625Z,8.68
2018-02-13T21:04:30.368Z,8.67
2018-02-13T21:06:58.462Z,8.68
2018-02-13T21:09:26.292Z,8.70
2018-02-13T21:11:54.062Z,8.70
2018-02-13T21:14:21.798Z,8.70
2018-02-13T21:16:49.399Z,8.72
2018-02-13T21:19:17.216Z,8.63
2018-02-13T21:21:44.838Z,8.76
2018-02-13T21:24:12.676Z,8.70
2018-02-13T21:26:40.430Z,8.75
2018-02-13T21:29:08.361Z,8.80
2018-02-13T21:31:36.377Z,8.78
2018-02-13T21:34:04.047Z,8.72
2018-02-13T21:36:31.846Z,8.77
2018-02-13T21:38:59.605Z,8.76
2018-02-13T21:41:27.304Z,8.78
2018-02-13T21:43:54.948Z,8.65
2018-02-13T21:46:22.556Z,8.76
2018-02-13T21:48:50.393Z,8.78
2018-02-13T21:51:17.984Z,8.77
2018-02-13T21:53:45.772Z,8.82
2018-02-13T21:56:13.931Z,8.79
2018-02-13T21:58:42.385Z,8.85
2018-02-13T22:01:09.985Z,8.80
2018-02-13T22:03:37.621Z,8.83
2018-02-13T22:06:05.257Z,8.84
2018-02-13T22:08:32.853Z,8.84
2018-02-13T22:11:00.645Z,8.85
2018-02-13T22:13:28.414Z,8.85
2018-02-13T22:15:56.037Z,8.87
2018-02-13T22:18:24.215Z,8.82
2018-02-13T22:20:51.785Z,8.92
2018-02-13T22:23:19.549Z,8.91
2018-02-13T22:25:51.198Z,8.95
2018-02-13T22:28:18.813Z,8.93
2018-02-13T22:30:46.405Z,8.92
2018-02-13T22:33:13.976Z,8.91
2018-02-13T22:35:41.557Z,8.96
2018-02-13T22:38:09.179Z,8.94
2018-02-13T22:40:36.777Z,8.94
2018-02-13T22:43:04.389Z,8.95
2018-02-13T22:45:32.154Z,8.95
2018-02-13T22:47:59.928Z,8.96
2018-02-13T22:50:27.582Z,8.95
2018-02-13T22:52:55.386Z,8.91
2018-02-13T22:55:23.019Z,8.99
2018-02-13T22:57:50.604Z,8.88
2018-02-13T23:00:21.344Z,8.95
2018-02-13T23:02:48.907Z,8.84
2018-02-13T23:05:16.665Z,8.94
2018-02-13T23:07:44.261Z,8.93
2018-02-13T23:10:11.887Z,8.95
2018-02-13T23:12:39.697Z,8.98
2018-02-13T23:15:07.477Z,8.97
2018-02-13T23:17:35.243Z,8.99
2018-02-13T23:20:02.846Z,8.99
2018-02-13T23:22:30.657Z,9.01
2018-02-13T23:24:58.431Z,9.03
2018-02-13T23:27:26.200Z,9.04
2018-02-13T23:29:53.961Z,9.02
2018-02-13T23:32:21.554Z,9.02
2018-02-13T23:34:49.286Z,9.04
2018-02-13T23:37:16.884Z,9.06
2018-02-13T23:39:44.488Z,9.05
2018-02-13T23:42:12.095Z,9.05
2018-02-13T23:44:39.793Z,9.02
2018-02-13T23:47:07.397Z,9.07
2018-02-13T23:49:35.001Z,9.06
2018-02-13T23:52:02.650Z,9.07
2018-02-13T23:54:30.529Z,9.08
2018-02-13T23:56:58.101Z,9.13
2018-02-13T23:59:25.747Z,9.12
